sensor_id;sensor_type;location;lat;lon;timestamp;temperature;humidity
43920;DHT22;29578;51.946;5.874;2023-12-04T00:02:19;1.30;91.80
43920;DHT22;29578;51.946;5.874;2023-12-04T00:04:44;1.30;91.80
43920;DHT22;29578;51.946;5.874;2023-12-04T00:07:10;1.40;91.90
43920;DHT22;29578;51.946;5.874;2023-12-04T00:09:36;1.30;91.80
43920;DHT22;29578;51.946;5.874;2023-12-04T00:12:02;1.30;91.80
43920;DHT22;29578;51.946;5.874;2023-12-04T00:14:27;1.30;92.10
43920;DHT22;29578;51.946;5.874;2023-12-04T00:16:53;1.30;91.80
43920;DHT22;29578;51.946;5.874;2023-12-04T00:19:21;1.30;91.80
43920;DHT22;29578;51.946;5.874;2023-12-04T00:21:46;1.30;91.80
43920;DHT22;29578;51.946;5.874;2023-12-04T00:24:12;1.30;91.80
43920;DHT22;29578;51.946;5.874;2023-12-04T00:26:38;1.20;91.80
43920;DHT22;29578;51.946;5.874;2023-12-04T00:29:04;1.30;91.90
43920;DHT22;29578;51.946;5.874;2023-12-04T00:31:29;1.30;91.90
43920;DHT22;29578;51.946;5.874;2023-12-04T00:33:56;1.30;91.90
43920;DHT22;29578;51.946;5.874;2023-12-04T00:36:22;1.30;91.90
43920;DHT22;29578;51.946;5.874;2023-12-04T00:38:48;1.30;91.90
43920;DHT22;29578;51.946;5.874;2023-12-04T00:41:14;1.30;91.90
43920;DHT22;29578;51.946;5.874;2023-12-04T00:43:39;1.30;91.90
43920;DHT22;29578;51.946;5.874;2023-12-04T00:46:05;1.30;91.90
43920;DHT22;29578;51.946;5.874;2023-12-04T00:48:31;1.30;91.90
43920;DHT22;29578;51.946;5.874;2023-12-04T00:50:57;1.30;91.80
43920;DHT22;29578;51.946;5.874;2023-12-04T00:53:23;1.30;91.90
43920;DHT22;29578;51.946;5.874;2023-12-04T00:55:49;1.30;91.90
43920;DHT22;29578;51.946;5.874;2023-12-04T00:58:15;1.30;91.90
43920;DHT22;29578;51.946;5.874;2023-12-04T01:00:41;1.30;91.90
43920;DHT22;29578;51.946;5.874;2023-12-04T01:03:06;1.30;91.80
43920;DHT22;29578;51.946;5.874;2023-12-04T01:05:32;1.20;91.80
43920;DHT22;29578;51.946;5.874;2023-12-04T01:07:57;1.30;91.90
43920;DHT22;29578;51.946;5.874;2023-12-04T01:10:23;1.30;91.90
43920;DHT22;29578;51.946;5.874;2023-12-04T01:12:49;1.20;91.90
43920;DHT22;29578;51.946;5.874;2023-12-04T01:15:15;1.30;91.90
43920;DHT22;29578;51.946;5.874;2023-12-04T01:17:41;1.30;91.90
43920;DHT22;29578;51.946;5.874;2023-12-04T01:20:07;1.20;91.90
43920;DHT22;29578;51.946;5.874;2023-12-04T01:22:33;1.30;91.90
43920;DHT22;29578;51.946;5.874;2023-12-04T01:24:59;1.30;91.90
43920;DHT22;29578;51.946;5.874;2023-12-04T01:27:24;1.30;91.90
43920;DHT22;29578;51.946;5.874;2023-12-04T01:29:50;1.30;91.90
43920;DHT22;29578;51.946;5.874;2023-12-04T01:32:16;1.30;91.90
43920;DHT22;29578;51.946;5.874;2023-12-04T01:34:41;1.30;91.90
43920;DHT22;29578;51.946;5.874;2023-12-04T01:37:07;1.30;91.90
43920;DHT22;29578;51.946;5.874;2023-12-04T01:39:33;1.30;92.20
43920;DHT22;29578;51.946;5.874;2023-12-04T01:41:58;1.30;91.90
43920;DHT22;29578;51.946;5.874;2023-12-04T01:44:24;1.30;91.90
43920;DHT22;29578;51.946;5.874;2023-12-04T01:46:50;1.30;91.90
43920;DHT22;29578;51.946;5.874;2023-12-04T01:49:16;1.30;91.90
43920;DHT22;29578;51.946;5.874;2023-12-04T01:51:43;1.30;91.90
43920;DHT22;29578;51.946;5.874;2023-12-04T01:54:10;1.30;91.90
43920;DHT22;29578;51.946;5.874;2023-12-04T01:56:36;1.30;91.90
43920;DHT22;29578;51.946;5.874;2023-12-04T01:59:03;1.30;91.90
43920;DHT22;29578;51.946;5.874;2023-12-04T02:01:30;1.30;91.90
43920;DHT22;29578;51.946;5.874;2023-12-04T02:03:56;1.30;91.90
43920;DHT22;29578;51.946;5.874;2023-12-04T02:06:23;1.30;91.90
43920;DHT22;29578;51.946;5.874;2023-12-04T02:08:50;1.20;91.90
43920;DHT22;29578;51.946;5.874;2023-12-04T02:11:16;1.30;91.90
43920;DHT22;29578;51.946;5.874;2023-12-04T02:13:42;1.30;91.90
43920;DHT22;29578;51.946;5.874;2023-12-04T02:16:10;1.40;91.90
43920;DHT22;29578;51.946;5.874;2023-12-04T02:18:38;1.30;91.90
43920;DHT22;29578;51.946;5.874;2023-12-04T02:21:04;1.30;91.90
43920;DHT22;29578;51.946;5.874;2023-12-04T02:23:30;1.30;91.90
43920;DHT22;29578;51.946;5.874;2023-12-04T02:26:01;1.20;91.90
43920;DHT22;29578;51.946;5.874;2023-12-04T02:28:32;1.30;91.90
43920;DHT22;29578;51.946;5.874;2023-12-04T02:30:59;1.20;91.90
43920;DHT22;29578;51.946;5.874;2023-12-04T02:33:29;1.20;91.90
43920;DHT22;29578;51.946;5.874;2023-12-04T02:35:57;1.30;92.00
43920;DHT22;29578;51.946;5.874;2023-12-04T02:38:25;1.20;91.90
43920;DHT22;29578;51.946;5.874;2023-12-04T02:40:53;1.10;91.90
43920;DHT22;29578;51.946;5.874;2023-12-04T02:43:19;1.20;91.90
43920;DHT22;29578;51.946;5.874;2023-12-04T02:45:45;1.30;91.90
43920;DHT22;29578;51.946;5.874;2023-12-04T02:48:11;1.10;91.90
43920;DHT22;29578;51.946;5.874;2023-12-04T02:50:36;1.20;91.90
43920;DHT22;29578;51.946;5.874;2023-12-04T02:53:02;1.20;91.90
43920;DHT22;29578;51.946;5.874;2023-12-04T02:55:28;1.20;91.90
43920;DHT22;29578;51.946;5.874;2023-12-04T02:57:54;1.20;91.90
43920;DHT22;29578;51.946;5.874;2023-12-04T03:00:20;1.20;91.90
43920;DHT22;29578;51.946;5.874;2023-12-04T03:02:45;1.20;91.90
43920;DHT22;29578;51.946;5.874;2023-12-04T03:05:11;1.20;91.90
43920;DHT22;29578;51.946;5.874;2023-12-04T03:07:39;1.20;91.90
43920;DHT22;29578;51.946;5.874;2023-12-04T03:10:05;1.20;91.90
43920;DHT22;29578;51.946;5.874;2023-12-04T03:12:34;1.30;91.90
43920;DHT22;29578;51.946;5.874;2023-12-04T03:15:00;1.20;91.90
43920;DHT22;29578;51.946;5.874;2023-12-04T03:17:25;1.30;91.90
43920;DHT22;29578;51.946;5.874;2023-12-04T03:19:52;1.20;91.90
43920;DHT22;29578;51.946;5.874;2023-12-04T03:22:18;1.30;91.90
43920;DHT22;29578;51.946;5.874;2023-12-04T03:24:43;1.20;91.90
43920;DHT22;29578;51.946;5.874;2023-12-04T03:27:09;1.30;91.90
43920;DHT22;29578;51.946;5.874;2023-12-04T03:29:35;1.30;91.90
43920;DHT22;29578;51.946;5.874;2023-12-04T03:32:01;1.30;91.90
43920;DHT22;29578;51.946;5.874;2023-12-04T03:34:26;1.20;91.90
43920;DHT22;29578;51.946;5.874;2023-12-04T03:36:52;1.20;91.90
43920;DHT22;29578;51.946;5.874;2023-12-04T03:39:18;1.30;91.90
43920;DHT22;29578;51.946;5.874;2023-12-04T03:41:44;1.20;91.80
43920;DHT22;29578;51.946;5.874;2023-12-04T03:44:10;1.30;91.90
43920;DHT22;29578;51.946;5.874;2023-12-04T03:46:36;1.30;91.90
43920;DHT22;29578;51.946;5.874;2023-12-04T03:49:01;1.20;92.10
43920;DHT22;29578;51.946;5.874;2023-12-04T03:51:29;1.20;91.90
43920;DHT22;29578;51.946;5.874;2023-12-04T03:53:55;1.30;91.90
43920;DHT22;29578;51.946;5.874;2023-12-04T03:56:20;1.20;91.90
43920;DHT22;29578;51.946;5.874;2023-12-04T03:58:46;1.30;91.90
43920;DHT22;29578;51.946;5.874;2023-12-04T04:01:12;1.40;91.90
43920;DHT22;29578;51.946;5.874;2023-12-04T04:03:38;1.20;91.90
43920;DHT22;29578;51.946;5.874;2023-12-04T04:06:04;1.20;91.90
43920;DHT22;29578;51.946;5.874;2023-12-04T04:08:30;1.20;91.90
43920;DHT22;29578;51.946;5.874;2023-12-04T04:10:55;1.20;91.90
43920;DHT22;29578;51.946;5.874;2023-12-04T04:13:21;1.20;91.90
43920;DHT22;29578;51.946;5.874;2023-12-04T04:15:47;1.20;91.90
43920;DHT22;29578;51.946;5.874;2023-12-04T04:18:13;1.20;91.90
43920;DHT22;29578;51.946;5.874;2023-12-04T04:20:38;1.20;91.90
43920;DHT22;29578;51.946;5.874;2023-12-04T04:23:04;1.20;91.90
43920;DHT22;29578;51.946;5.874;2023-12-04T04:25:30;1.20;91.90
43920;DHT22;29578;51.946;5.874;2023-12-04T04:27:55;1.10;91.90
43920;DHT22;29578;51.946;5.874;2023-12-04T04:30:22;1.10;91.90
43920;DHT22;29578;51.946;5.874;2023-12-04T04:32:48;1.10;91.80
43920;DHT22;29578;51.946;5.874;2023-12-04T04:35:13;1.20;91.90
43920;DHT22;29578;51.946;5.874;2023-12-04T04:37:39;1.20;91.90
43920;DHT22;29578;51.946;5.874;2023-12-04T04:40:05;1.10;91.80
43920;DHT22;29578;51.946;5.874;2023-12-04T04:42:31;1.20;91.90
43920;DHT22;29578;51.946;5.874;2023-12-04T04:44:58;1.20;91.80
43920;DHT22;29578;51.946;5.874;2023-12-04T04:47:24;1.10;91.80
43920;DHT22;29578;51.946;5.874;2023-12-04T04:49:49;1.20;91.80
43920;DHT22;29578;51.946;5.874;2023-12-04T04:52:15;1.20;91.80
43920;DHT22;29578;51.946;5.874;2023-12-04T04:54:41;1.20;91.80
43920;DHT22;29578;51.946;5.874;2023-12-04T04:57:06;1.20;91.80
43920;DHT22;29578;51.946;5.874;2023-12-04T04:59:33;1.20;91.80
43920;DHT22;29578;51.946;5.874;2023-12-04T05:01:59;1.10;91.80
43920;DHT22;29578;51.946;5.874;2023-12-04T05:04:25;1.10;91.80
43920;DHT22;29578;51.946;5.874;2023-12-04T05:06:50;1.10;91.80
43920;DHT22;29578;51.946;5.874;2023-12-04T05:09:17;1.20;91.80
43920;DHT22;29578;51.946;5.874;2023-12-04T05:11:43;1.10;91.80
43920;DHT22;29578;51.946;5.874;2023-12-04T05:14:09;1.10;91.80
43920;DHT22;29578;51.946;5.874;2023-12-04T05:16:35;1.10;91.80
43920;DHT22;29578;51.946;5.874;2023-12-04T05:19:00;1.10;91.80
43920;DHT22;29578;51.946;5.874;2023-12-04T05:21:26;1.10;91.80
43920;DHT22;29578;51.946;5.874;2023-12-04T05:23:52;1.10;91.80
43920;DHT22;29578;51.946;5.874;2023-12-04T05:26:18;1.10;91.80
43920;DHT22;29578;51.946;5.874;2023-12-04T05:28:43;1.10;91.80
43920;DHT22;29578;51.946;5.874;2023-12-04T05:31:09;1.10;91.80
43920;DHT22;29578;51.946;5.874;2023-12-04T05:33:35;1.10;91.80
43920;DHT22;29578;51.946;5.874;2023-12-04T05:36:01;1.10;91.80
43920;DHT22;29578;51.946;5.874;2023-12-04T05:38:26;1.10;91.80
43920;DHT22;29578;51.946;5.874;2023-12-04T05:40:52;1.10;92.10
43920;DHT22;29578;51.946;5.874;2023-12-04T05:43:20;1.10;92.10
43920;DHT22;29578;51.946;5.874;2023-12-04T05:45:45;1.10;91.80
43920;DHT22;29578;51.946;5.874;2023-12-04T05:48:11;1.10;91.80
43920;DHT22;29578;51.946;5.874;2023-12-04T05:50:37;1.10;91.80
43920;DHT22;29578;51.946;5.874;2023-12-04T05:53:03;1.10;92.10
43920;DHT22;29578;51.946;5.874;2023-12-04T05:55:28;1.10;91.80
43920;DHT22;29578;51.946;5.874;2023-12-04T05:57:54;1.10;91.80
43920;DHT22;29578;51.946;5.874;2023-12-04T06:00:20;1.20;91.80
43920;DHT22;29578;51.946;5.874;2023-12-04T06:02:47;1.10;91.70
43920;DHT22;29578;51.946;5.874;2023-12-04T06:05:13;1.10;91.70
43920;DHT22;29578;51.946;5.874;2023-12-04T06:07:39;1.20;92.00
43920;DHT22;29578;51.946;5.874;2023-12-04T06:10:05;1.20;91.70
43920;DHT22;29578;51.946;5.874;2023-12-04T06:12:31;1.10;91.70
43920;DHT22;29578;51.946;5.874;2023-12-04T06:14:57;1.10;91.70
43920;DHT22;29578;51.946;5.874;2023-12-04T06:17:25;1.10;91.60
43920;DHT22;29578;51.946;5.874;2023-12-04T06:19:54;1.20;91.70
43920;DHT22;29578;51.946;5.874;2023-12-04T06:22:20;1.20;91.70
43920;DHT22;29578;51.946;5.874;2023-12-04T06:24:47;1.20;91.60
43920;DHT22;29578;51.946;5.874;2023-12-04T06:27:16;1.10;91.60
43920;DHT22;29578;51.946;5.874;2023-12-04T06:29:44;1.20;91.60
43920;DHT22;29578;51.946;5.874;2023-12-04T06:32:11;1.20;91.60
43920;DHT22;29578;51.946;5.874;2023-12-04T06:34:37;1.20;91.60
43920;DHT22;29578;51.946;5.874;2023-12-04T06:37:03;1.20;91.60
43920;DHT22;29578;51.946;5.874;2023-12-04T06:39:32;1.20;91.60
43920;DHT22;29578;51.946;5.874;2023-12-04T06:41:59;1.20;91.60
43920;DHT22;29578;51.946;5.874;2023-12-04T06:44:25;1.20;91.60
43920;DHT22;29578;51.946;5.874;2023-12-04T06:46:52;1.20;91.50
43920;DHT22;29578;51.946;5.874;2023-12-04T06:49:18;1.20;91.50
43920;DHT22;29578;51.946;5.874;2023-12-04T06:51:44;1.30;91.50
43920;DHT22;29578;51.946;5.874;2023-12-04T06:54:10;1.20;91.50
43920;DHT22;29578;51.946;5.874;2023-12-04T06:56:38;1.20;91.40
43920;DHT22;29578;51.946;5.874;2023-12-04T06:59:03;1.30;91.50
43920;DHT22;29578;51.946;5.874;2023-12-04T07:01:29;1.20;91.40
43920;DHT22;29578;51.946;5.874;2023-12-04T07:03:55;1.20;91.40
43920;DHT22;29578;51.946;5.874;2023-12-04T07:06:21;1.30;91.40
43920;DHT22;29578;51.946;5.874;2023-12-04T07:08:47;1.20;91.40
43920;DHT22;29578;51.946;5.874;2023-12-04T07:11:12;1.30;91.40
43920;DHT22;29578;51.946;5.874;2023-12-04T07:13:41;1.30;91.40
43920;DHT22;29578;51.946;5.874;2023-12-04T07:16:08;1.30;91.40
43920;DHT22;29578;51.946;5.874;2023-12-04T07:18:34;1.20;91.30
43920;DHT22;29578;51.946;5.874;2023-12-04T07:21:00;1.20;91.30
43920;DHT22;29578;51.946;5.874;2023-12-04T07:23:26;1.30;91.40
43920;DHT22;29578;51.946;5.874;2023-12-04T07:25:52;1.30;91.30
43920;DHT22;29578;51.946;5.874;2023-12-04T07:28:18;1.30;91.30
43920;DHT22;29578;51.946;5.874;2023-12-04T07:30:44;1.20;91.30
43920;DHT22;29578;51.946;5.874;2023-12-04T07:33:09;1.30;91.30
43920;DHT22;29578;51.946;5.874;2023-12-04T07:35:35;1.30;91.30
43920;DHT22;29578;51.946;5.874;2023-12-04T07:38:01;1.30;91.30
43920;DHT22;29578;51.946;5.874;2023-12-04T07:40:26;1.30;91.20
43920;DHT22;29578;51.946;5.874;2023-12-04T07:42:52;1.30;91.20
43920;DHT22;29578;51.946;5.874;2023-12-04T07:45:18;1.30;91.20
43920;DHT22;29578;51.946;5.874;2023-12-04T07:47:43;1.30;91.20
43920;DHT22;29578;51.946;5.874;2023-12-04T07:50:09;1.30;91.20
43920;DHT22;29578;51.946;5.874;2023-12-04T07:52:35;1.30;91.20
43920;DHT22;29578;51.946;5.874;2023-12-04T07:55:01;1.30;91.20
43920;DHT22;29578;51.946;5.874;2023-12-04T07:57:27;1.30;91.20
43920;DHT22;29578;51.946;5.874;2023-12-04T07:59:52;1.30;91.20
43920;DHT22;29578;51.946;5.874;2023-12-04T08:02:18;1.40;91.20
43920;DHT22;29578;51.946;5.874;2023-12-04T08:04:44;1.40;91.10
43920;DHT22;29578;51.946;5.874;2023-12-04T08:07:11;1.40;91.10
43920;DHT22;29578;51.946;5.874;2023-12-04T08:09:36;1.40;91.10
43920;DHT22;29578;51.946;5.874;2023-12-04T08:12:02;1.40;91.10
43920;DHT22;29578;51.946;5.874;2023-12-04T08:14:28;1.40;91.10
43920;DHT22;29578;51.946;5.874;2023-12-04T08:16:53;1.40;91.10
43920;DHT22;29578;51.946;5.874;2023-12-04T08:19:19;1.50;91.10
43920;DHT22;29578;51.946;5.874;2023-12-04T08:21:45;1.50;91.10
43920;DHT22;29578;51.946;5.874;2023-12-04T08:24:10;1.50;91.00
43920;DHT22;29578;51.946;5.874;2023-12-04T08:26:36;1.50;91.00
43920;DHT22;29578;51.946;5.874;2023-12-04T08:29:02;1.50;91.00
43920;DHT22;29578;51.946;5.874;2023-12-04T08:31:28;1.50;91.00
43920;DHT22;29578;51.946;5.874;2023-12-04T08:33:53;1.60;91.00
43920;DHT22;29578;51.946;5.874;2023-12-04T08:36:20;1.50;91.00
43920;DHT22;29578;51.946;5.874;2023-12-04T08:38:45;1.50;90.90
43920;DHT22;29578;51.946;5.874;2023-12-04T08:41:11;1.60;91.00
43920;DHT22;29578;51.946;5.874;2023-12-04T08:43:37;1.60;91.00
43920;DHT22;29578;51.946;5.874;2023-12-04T08:46:05;1.60;91.00
43920;DHT22;29578;51.946;5.874;2023-12-04T08:48:32;1.60;90.90
43920;DHT22;29578;51.946;5.874;2023-12-04T08:51:01;1.70;91.00
43920;DHT22;29578;51.946;5.874;2023-12-04T08:53:27;1.70;90.90
43920;DHT22;29578;51.946;5.874;2023-12-04T08:55:52;1.70;90.90
43920;DHT22;29578;51.946;5.874;2023-12-04T08:58:18;1.70;90.90
43920;DHT22;29578;51.946;5.874;2023-12-04T09:00:44;1.80;90.90
43920;DHT22;29578;51.946;5.874;2023-12-04T09:03:10;1.70;90.80
43920;DHT22;29578;51.946;5.874;2023-12-04T09:05:36;1.80;90.80
43920;DHT22;29578;51.946;5.874;2023-12-04T09:08:02;1.80;90.80
43920;DHT22;29578;51.946;5.874;2023-12-04T09:10:28;1.80;90.80
43920;DHT22;29578;51.946;5.874;2023-12-04T09:12:54;1.80;90.80
43920;DHT22;29578;51.946;5.874;2023-12-04T09:15:20;1.80;90.80
43920;DHT22;29578;51.946;5.874;2023-12-04T09:17:45;1.80;90.70
43920;DHT22;29578;51.946;5.874;2023-12-04T09:20:11;1.80;90.80
43920;DHT22;29578;51.946;5.874;2023-12-04T09:22:37;1.80;90.70
43920;DHT22;29578;51.946;5.874;2023-12-04T09:25:05;1.90;90.70
43920;DHT22;29578;51.946;5.874;2023-12-04T09:27:31;1.80;90.70
43920;DHT22;29578;51.946;5.874;2023-12-04T09:29:57;1.90;90.70
43920;DHT22;29578;51.946;5.874;2023-12-04T09:32:23;1.90;90.70
43920;DHT22;29578;51.946;5.874;2023-12-04T09:34:49;2.00;90.70
43920;DHT22;29578;51.946;5.874;2023-12-04T09:37:15;2.00;90.70
43920;DHT22;29578;51.946;5.874;2023-12-04T09:39:41;2.00;90.60
43920;DHT22;29578;51.946;5.874;2023-12-04T09:42:07;2.00;90.60
43920;DHT22;29578;51.946;5.874;2023-12-04T09:44:34;2.00;90.60
43920;DHT22;29578;51.946;5.874;2023-12-04T09:47:02;2.10;90.50
43920;DHT22;29578;51.946;5.874;2023-12-04T09:49:29;2.10;90.80
43920;DHT22;29578;51.946;5.874;2023-12-04T09:51:58;2.20;90.50
43920;DHT22;29578;51.946;5.874;2023-12-04T09:54:24;2.20;90.50
43920;DHT22;29578;51.946;5.874;2023-12-04T09:56:50;2.20;90.40
43920;DHT22;29578;51.946;5.874;2023-12-04T09:59:17;2.20;90.40
43920;DHT22;29578;51.946;5.874;2023-12-04T10:01:43;2.30;90.40
43920;DHT22;29578;51.946;5.874;2023-12-04T10:04:10;2.20;90.30
43920;DHT22;29578;51.946;5.874;2023-12-04T10:06:37;2.30;90.30
43920;DHT22;29578;51.946;5.874;2023-12-04T10:09:04;2.30;90.30
43920;DHT22;29578;51.946;5.874;2023-12-04T10:11:30;2.50;90.30
43920;DHT22;29578;51.946;5.874;2023-12-04T10:13:56;2.40;90.30
43920;DHT22;29578;51.946;5.874;2023-12-04T10:16:37;2.40;90.20
43920;DHT22;29578;51.946;5.874;2023-12-04T10:19:24;2.50;90.20
43920;DHT22;29578;51.946;5.874;2023-12-04T10:21:54;2.50;90.20
43920;DHT22;29578;51.946;5.874;2023-12-04T10:24:32;2.50;90.20
43920;DHT22;29578;51.946;5.874;2023-12-04T10:27:00;2.50;90.20
43920;DHT22;29578;51.946;5.874;2023-12-04T10:29:28;2.60;90.10
43920;DHT22;29578;51.946;5.874;2023-12-04T10:31:57;2.60;90.10
43920;DHT22;29578;51.946;5.874;2023-12-04T10:34:25;2.70;90.20
43920;DHT22;29578;51.946;5.874;2023-12-04T10:36:55;2.60;90.10
43920;DHT22;29578;51.946;5.874;2023-12-04T10:39:21;2.70;90.00
43920;DHT22;29578;51.946;5.874;2023-12-04T10:41:59;2.60;90.00
43920;DHT22;29578;51.946;5.874;2023-12-04T10:44:26;2.60;90.20
43920;DHT22;29578;51.946;5.874;2023-12-04T10:46:55;2.60;89.90
43920;DHT22;29578;51.946;5.874;2023-12-04T10:49:27;2.60;89.90
43920;DHT22;29578;51.946;5.874;2023-12-04T10:51:55;2.70;90.00
43920;DHT22;29578;51.946;5.874;2023-12-04T10:54:22;2.60;90.00
43920;DHT22;29578;51.946;5.874;2023-12-04T10:56:56;2.60;90.00
43920;DHT22;29578;51.946;5.874;2023-12-04T10:59:27;2.60;90.00
43920;DHT22;29578;51.946;5.874;2023-12-04T11:02:00;2.60;90.00
43920;DHT22;29578;51.946;5.874;2023-12-04T11:04:31;2.70;90.00
43920;DHT22;29578;51.946;5.874;2023-12-04T11:06:59;2.70;89.90
43920;DHT22;29578;51.946;5.874;2023-12-04T11:09:28;2.70;89.80
43920;DHT22;29578;51.946;5.874;2023-12-04T11:11:59;2.80;89.80
43920;DHT22;29578;51.946;5.874;2023-12-04T11:14:33;2.80;89.70
43920;DHT22;29578;51.946;5.874;2023-12-04T11:17:04;2.80;89.60
43920;DHT22;29578;51.946;5.874;2023-12-04T11:22:15;2.80;89.50
43920;DHT22;29578;51.946;5.874;2023-12-04T11:24:46;2.80;89.50
43920;DHT22;29578;51.946;5.874;2023-12-04T11:27:15;2.80;89.50
43920;DHT22;29578;51.946;5.874;2023-12-04T11:29:41;2.90;89.50
43920;DHT22;29578;51.946;5.874;2023-12-04T11:32:07;2.90;89.50
43920;DHT22;29578;51.946;5.874;2023-12-04T11:34:48;2.90;89.50
43920;DHT22;29578;51.946;5.874;2023-12-04T11:37:14;2.90;89.50
43920;DHT22;29578;51.946;5.874;2023-12-04T11:39:39;2.90;89.50
43920;DHT22;29578;51.946;5.874;2023-12-04T11:42:06;3.00;89.50
43920;DHT22;29578;51.946;5.874;2023-12-04T11:44:33;2.90;89.40
43920;DHT22;29578;51.946;5.874;2023-12-04T11:47:05;2.90;89.40
43920;DHT22;29578;51.946;5.874;2023-12-04T11:49:32;2.90;89.40
43920;DHT22;29578;51.946;5.874;2023-12-04T11:52:00;2.80;89.30
43920;DHT22;29578;51.946;5.874;2023-12-04T11:54:28;2.80;89.40
43920;DHT22;29578;51.946;5.874;2023-12-04T11:57:20;2.80;89.30
43920;DHT22;29578;51.946;5.874;2023-12-04T11:59:48;2.80;89.30
43920;DHT22;29578;51.946;5.874;2023-12-04T12:02:15;2.90;89.40
43920;DHT22;29578;51.946;5.874;2023-12-04T12:04:41;2.90;89.40
43920;DHT22;29578;51.946;5.874;2023-12-04T12:07:07;3.00;89.40
43920;DHT22;29578;51.946;5.874;2023-12-04T12:09:33;2.90;89.30
43920;DHT22;29578;51.946;5.874;2023-12-04T12:12:01;2.90;89.30
43920;DHT22;29578;51.946;5.874;2023-12-04T12:14:28;2.90;89.30
43920;DHT22;29578;51.946;5.874;2023-12-04T12:16:59;2.90;89.20
43920;DHT22;29578;51.946;5.874;2023-12-04T12:19:25;2.90;89.20
43920;DHT22;29578;51.946;5.874;2023-12-04T12:21:52;2.90;89.20
43920;DHT22;29578;51.946;5.874;2023-12-04T12:24:25;2.90;89.20
43920;DHT22;29578;51.946;5.874;2023-12-04T12:26:54;3.00;89.20
43920;DHT22;29578;51.946;5.874;2023-12-04T12:29:20;2.90;89.20
43920;DHT22;29578;51.946;5.874;2023-12-04T12:31:47;2.80;89.10
43920;DHT22;29578;51.946;5.874;2023-12-04T12:34:13;2.90;89.10
43920;DHT22;29578;51.946;5.874;2023-12-04T12:36:40;3.00;89.10
43920;DHT22;29578;51.946;5.874;2023-12-04T12:39:08;2.80;89.00
43920;DHT22;29578;51.946;5.874;2023-12-04T12:41:34;2.90;89.10
43920;DHT22;29578;51.946;5.874;2023-12-04T12:44:00;2.80;89.10
43920;DHT22;29578;51.946;5.874;2023-12-04T12:46:27;2.90;89.00
43920;DHT22;29578;51.946;5.874;2023-12-04T12:48:53;2.90;89.10
43920;DHT22;29578;51.946;5.874;2023-12-04T12:51:19;2.90;89.00
43920;DHT22;29578;51.946;5.874;2023-12-04T12:53:45;2.80;88.90
43920;DHT22;29578;51.946;5.874;2023-12-04T12:56:11;2.80;88.90
43920;DHT22;29578;51.946;5.874;2023-12-04T12:58:37;2.90;89.00
43920;DHT22;29578;51.946;5.874;2023-12-04T13:01:02;3.00;89.00
43920;DHT22;29578;51.946;5.874;2023-12-04T13:03:30;2.90;88.90
43920;DHT22;29578;51.946;5.874;2023-12-04T13:05:57;3.00;88.80
43920;DHT22;29578;51.946;5.874;2023-12-04T13:08:23;3.00;88.70
43920;DHT22;29578;51.946;5.874;2023-12-04T13:10:48;3.00;88.60
43920;DHT22;29578;51.946;5.874;2023-12-04T13:13:38;3.00;88.50
43920;DHT22;29578;51.946;5.874;2023-12-04T13:16:06;3.00;88.40
43920;DHT22;29578;51.946;5.874;2023-12-04T13:18:34;3.00;88.50
43920;DHT22;29578;51.946;5.874;2023-12-04T13:21:01;3.00;88.50
43920;DHT22;29578;51.946;5.874;2023-12-04T13:23:30;3.00;88.50
43920;DHT22;29578;51.946;5.874;2023-12-04T13:25:58;3.00;88.60
43920;DHT22;29578;51.946;5.874;2023-12-04T13:28:27;3.00;88.60
43920;DHT22;29578;51.946;5.874;2023-12-04T13:30:55;3.00;88.60
43920;DHT22;29578;51.946;5.874;2023-12-04T13:33:24;2.90;88.60
43920;DHT22;29578;51.946;5.874;2023-12-04T13:35:55;2.90;88.60
43920;DHT22;29578;51.946;5.874;2023-12-04T13:38:20;2.90;88.60
43920;DHT22;29578;51.946;5.874;2023-12-04T13:40:46;3.00;88.50
43920;DHT22;29578;51.946;5.874;2023-12-04T13:43:26;3.00;88.60
43920;DHT22;29578;51.946;5.874;2023-12-04T13:46:04;3.00;88.50
43920;DHT22;29578;51.946;5.874;2023-12-04T13:48:35;3.00;88.50
43920;DHT22;29578;51.946;5.874;2023-12-04T13:51:03;3.10;88.50
43920;DHT22;29578;51.946;5.874;2023-12-04T13:53:29;3.00;88.40
43920;DHT22;29578;51.946;5.874;2023-12-04T13:55:58;3.00;88.40
43920;DHT22;29578;51.946;5.874;2023-12-04T13:58:44;3.00;88.50
43920;DHT22;29578;51.946;5.874;2023-12-04T14:01:23;3.00;88.50
43920;DHT22;29578;51.946;5.874;2023-12-04T14:03:55;3.00;88.50
43920;DHT22;29578;51.946;5.874;2023-12-04T14:06:27;3.00;88.50
43920;DHT22;29578;51.946;5.874;2023-12-04T14:08:53;3.00;88.50
43920;DHT22;29578;51.946;5.874;2023-12-04T14:11:19;2.90;88.50
43920;DHT22;29578;51.946;5.874;2023-12-04T14:13:44;2.90;88.60
43920;DHT22;29578;51.946;5.874;2023-12-04T14:16:10;2.90;88.70
43920;DHT22;29578;51.946;5.874;2023-12-04T14:18:36;2.90;88.70
43920;DHT22;29578;51.946;5.874;2023-12-04T14:21:02;2.80;88.70
43920;DHT22;29578;51.946;5.874;2023-12-04T14:23:28;2.90;88.90
43920;DHT22;29578;51.946;5.874;2023-12-04T14:25:54;2.90;88.80
43920;DHT22;29578;51.946;5.874;2023-12-04T14:28:19;2.90;88.90
43920;DHT22;29578;51.946;5.874;2023-12-04T14:30:45;2.90;88.90
43920;DHT22;29578;51.946;5.874;2023-12-04T14:33:11;2.80;88.90
43920;DHT22;29578;51.946;5.874;2023-12-04T14:35:37;2.80;88.90
43920;DHT22;29578;51.946;5.874;2023-12-04T14:38:03;2.70;88.90
43920;DHT22;29578;51.946;5.874;2023-12-04T14:40:32;2.80;89.00
43920;DHT22;29578;51.946;5.874;2023-12-04T14:42:57;2.80;89.10
43920;DHT22;29578;51.946;5.874;2023-12-04T14:45:23;2.80;89.80
43920;DHT22;29578;51.946;5.874;2023-12-04T14:47:50;2.80;89.20
43920;DHT22;29578;51.946;5.874;2023-12-04T14:50:17;2.80;89.30
43920;DHT22;29578;51.946;5.874;2023-12-04T14:52:44;2.80;89.30
43920;DHT22;29578;51.946;5.874;2023-12-04T14:55:15;2.80;89.20
43920;DHT22;29578;51.946;5.874;2023-12-04T14:58:00;2.80;89.20
43920;DHT22;29578;51.946;5.874;2023-12-04T15:00:43;2.80;89.20
43920;DHT22;29578;51.946;5.874;2023-12-04T15:03:23;2.80;89.30
43920;DHT22;29578;51.946;5.874;2023-12-04T15:06:08;2.80;89.30
43920;DHT22;29578;51.946;5.874;2023-12-04T15:08:54;2.70;89.30
43920;DHT22;29578;51.946;5.874;2023-12-04T15:11:33;2.70;89.40
43920;DHT22;29578;51.946;5.874;2023-12-04T15:14:12;2.70;89.40
43920;DHT22;29578;51.946;5.874;2023-12-04T15:17:26;2.70;89.40
43920;DHT22;29578;51.946;5.874;2023-12-04T15:19:58;2.70;89.50
43920;DHT22;29578;51.946;5.874;2023-12-04T15:22:43;2.70;89.40
43920;DHT22;29578;51.946;5.874;2023-12-04T15:25:09;2.70;89.50
43920;DHT22;29578;51.946;5.874;2023-12-04T15:27:37;2.70;89.50
43920;DHT22;29578;51.946;5.874;2023-12-04T15:30:03;2.70;89.50
43920;DHT22;29578;51.946;5.874;2023-12-04T15:32:30;2.70;89.60
43920;DHT22;29578;51.946;5.874;2023-12-04T15:34:56;2.70;89.60
43920;DHT22;29578;51.946;5.874;2023-12-04T15:37:22;2.60;89.60
43920;DHT22;29578;51.946;5.874;2023-12-04T15:39:48;2.70;89.70
43920;DHT22;29578;51.946;5.874;2023-12-04T15:42:13;2.70;89.80
43920;DHT22;29578;51.946;5.874;2023-12-04T15:44:39;2.60;89.80
43920;DHT22;29578;51.946;5.874;2023-12-04T15:47:05;2.60;89.90
43920;DHT22;29578;51.946;5.874;2023-12-04T15:49:39;2.60;90.00